PWSweather.com
Personal Weather Stations
Station Observations
CW4114
Near Downtown, Rogers City, MI 49779

Near DowntownRogers City, MI 49779

Lat: 45.417443, Lon: -83.810642

Elevation: 605

Station Type: Davis Vantage Pro2 w/Solar

Latest ConditionsUpdated 2:46:02 PM EDT Saturday, Oct 1, 2016
Currently Today's Max Today's Min Today's Average
Temperature 56.8°F13.8°C 59.4°F15.2°C 55.9°F13.3°C 57.5°F14.2°C
Dew Point 55.9°F13.3°C 56.8°F13.8°C 54.1°F12.3°C 55.5°F13.1°C
Winds 3.8 mph E6.1 kmh E 8.3 mph ESE13.4 kmh ESE - 4.1 mph 6.6 kmh
Wind Gusts 5.4 mph8.7 kmh 18.1 mph29.1 kmh - -
Humidity 97% 97% 88% 93%
Pressure 30.11 in1019.6 mb 30.23 in1023.7 mb 30.11 in1019.6 mb -
Precipitation - 0.04 in1.0 mm - -
Hour Temp Dew Point Humidity Winds Wind Gusts Pressure Precip Precip Rate Daily Precip Total
02:46 PM 56.8°F13.8°C 55.9°F13.3°C 97% 3.8 mph E6.1 kmh E 5.4 mph8.7 kmh 30.11 in1019.6 mb 0.00 in0.0 mm 0.00 in0.0 mm 0.04 in1.0 mm
02:41 PM 57.0°F13.9°C 56.1°F13.4°C 97% 2.7 mph ENE4.3 kmh ENE 7.4 mph11.9 kmh 30.11 in1019.6 mb 0.00 in0.0 mm 0.00 in0.0 mm 0.04 in1.0 mm
02:36 PM 56.8°F13.8°C 55.8°F13.2°C 96% 3.6 mph E5.8 kmh E 7.4 mph11.9 kmh 30.11 in1019.6 mb 0.00 in0.0 mm 0.00 in0.0 mm 0.04 in1.0 mm
02:31 PM 56.8°F13.8°C 55.8°F13.2°C 96% 3.8 mph E6.1 kmh E 7.4 mph11.9 kmh 30.11 in1019.6 mb 0.00 in0.0 mm 0.00 in0.0 mm 0.04 in1.0 mm
02:26 PM 56.8°F13.8°C 55.4°F13.0°C 95% 3.6 mph ENE5.8 kmh ENE 6.3 mph10.1 kmh 30.11 in1019.6 mb 0.00 in0.0 mm 0.00 in0.0 mm 0.04 in1.0 mm
02:21 PM 57.0°F13.9°C 55.6°F13.1°C 95% 2.5 mph SE4.0 kmh SE 4.3 mph6.9 kmh 30.12 in1020.0 mb 0.00 in0.0 mm 0.00 in0.0 mm 0.04 in1.0 mm
02:16 PM 57.0°F13.9°C 55.6°F13.1°C 95% 2.7 mph E4.3 kmh E 4.3 mph6.9 kmh 30.12 in1020.0 mb 0.00 in0.0 mm 0.00 in0.0 mm 0.04 in1.0 mm
02:11 PM 57.6°F14.2°C 56.1°F13.4°C 95% 2.9 mph ESE4.7 kmh ESE 6.3 mph10.1 kmh 30.12 in1020.0 mb 0.00 in0.0 mm 0.00 in0.0 mm 0.04 in1.0 mm
02:06 PM 57.9°F14.4°C 56.8°F13.8°C 96% 3.8 mph E6.1 kmh E 6.3 mph10.1 kmh 30.12 in1020.0 mb 0.00 in0.0 mm 0.00 in0.0 mm 0.04 in1.0 mm
02:01 PM 57.9°F14.4°C 56.8°F13.8°C 96% 2.7 mph E4.3 kmh E 7.4 mph11.9 kmh 30.12 in1020.0 mb 0.00 in0.0 mm 0.00 in0.0 mm 0.04 in1.0 mm
01:56 PM 57.9°F14.4°C 56.8°F13.8°C 96% 3.1 mph S5.0 kmh S 10.5 mph16.9 kmh 30.13 in1020.3 mb 0.00 in0.0 mm 0.00 in0.0 mm 0.04 in1.0 mm
01:51 PM 57.7°F14.3°C 56.7°F13.7°C 96% 4.0 mph E6.4 kmh E 8.5 mph13.7 kmh 30.13 in1020.3 mb 0.00 in0.0 mm 0.00 in0.0 mm 0.04 in1.0 mm
01:46 PM 57.7°F14.3°C 56.8°F13.8°C 97% 4.5 mph SE7.2 kmh SE 8.5 mph13.7 kmh 30.13 in1020.3 mb 0.00 in0.0 mm 0.00 in0.0 mm 0.04 in1.0 mm
01:41 PM 57.7°F14.3°C 56.8°F13.8°C 97% 3.6 mph E5.8 kmh E 9.6 mph15.4 kmh 30.13 in1020.3 mb 0.00 in0.0 mm 0.00 in0.0 mm 0.04 in1.0 mm
01:36 PM 57.6°F14.2°C 56.7°F13.7°C 97% 5.6 mph ENE9.0 kmh ENE 8.5 mph13.7 kmh 30.13 in1020.3 mb 0.00 in0.0 mm 0.00 in0.0 mm 0.04 in1.0 mm
01:31 PM 57.6°F14.2°C 56.7°F13.7°C 97% 2.9 mph ENE4.7 kmh ENE 7.4 mph11.9 kmh 30.14 in1020.7 mb 0.00 in0.0 mm 0.00 in0.0 mm 0.04 in1.0 mm
01:26 PM 57.4°F14.1°C 56.5°F13.6°C 97% 4.0 mph SE6.4 kmh SE 6.3 mph10.1 kmh 30.14 in1020.7 mb 0.00 in0.0 mm 0.00 in0.0 mm 0.04 in1.0 mm
01:21 PM 57.2°F14.0°C 56.3°F13.5°C 97% 4.0 mph SE6.4 kmh SE 6.3 mph10.1 kmh 30.14 in1020.7 mb 0.00 in0.0 mm 0.00 in0.0 mm 0.04 in1.0 mm
01:16 PM 57.0°F13.9°C 56.1°F13.4°C 97% 2.2 mph E3.5 kmh E 7.4 mph11.9 kmh 30.14 in1020.7 mb 0.00 in0.0 mm 0.00 in0.0 mm 0.04 in1.0 mm
01:11 PM 57.0°F13.9°C 56.1°F13.4°C 97% 3.8 mph SE6.1 kmh SE 7.4 mph11.9 kmh 30.14 in1020.7 mb 0.00 in0.0 mm 0.00 in0.0 mm 0.04 in1.0 mm
01:06 PM 57.0°F13.9°C 56.1°F13.4°C 97% 3.1 mph SE5.0 kmh SE 6.3 mph10.1 kmh 30.14 in1020.7 mb 0.00 in0.0 mm 0.00 in0.0 mm 0.04 in1.0 mm
01:01 PM 56.8°F13.8°C 55.9°F13.3°C 97% 2.9 mph SE4.7 kmh SE 10.5 mph16.9 kmh 30.14 in1020.7 mb 0.00 in0.0 mm 0.00 in0.0 mm 0.04 in1.0 mm
12:56 PM 56.8°F13.8°C 55.9°F13.3°C 97% 2.7 mph SE4.3 kmh SE 9.6 mph15.4 kmh 30.14 in1020.7 mb 0.00 in0.0 mm 0.00 in0.0 mm 0.04 in1.0 mm
12:51 PM 56.8°F13.8°C 55.9°F13.3°C 97% 4.7 mph E7.6 kmh E 7.4 mph11.9 kmh 30.14 in1020.7 mb 0.01 in0.3 mm 0.00 in0.0 mm 0.04 in1.0 mm
12:46 PM 56.7°F13.7°C 55.8°F13.2°C 97% 2.9 mph SE4.7 kmh SE 6.3 mph10.1 kmh 30.14 in1020.7 mb 0.01 in0.3 mm 0.00 in0.0 mm 0.04 in1.0 mm
12:41 PM 56.8°F13.8°C 55.9°F13.3°C 97% 3.6 mph E5.8 kmh E 7.4 mph11.9 kmh 30.14 in1020.7 mb 0.01 in0.3 mm 0.00 in0.0 mm 0.04 in1.0 mm
12:36 PM 56.8°F13.8°C 55.9°F13.3°C 97% 3.8 mph ESE6.1 kmh ESE 6.3 mph10.1 kmh 30.14 in1020.7 mb 0.01 in0.3 mm 0.00 in0.0 mm 0.04 in1.0 mm
12:31 PM 57.0°F13.9°C 56.1°F13.4°C 97% 4.9 mph E7.9 kmh E 8.5 mph13.7 kmh 30.15 in1021.0 mb 0.01 in0.3 mm 0.00 in0.0 mm 0.04 in1.0 mm
12:26 PM 57.0°F13.9°C 56.1°F13.4°C 97% 3.8 mph E6.1 kmh E 7.4 mph11.9 kmh 30.15 in1021.0 mb 0.01 in0.3 mm 0.00 in0.0 mm 0.04 in1.0 mm
12:21 PM 56.8°F13.8°C 55.9°F13.3°C 97% 4.5 mph SE7.2 kmh SE 8.5 mph13.7 kmh 30.15 in1021.0 mb 0.02 in0.5 mm 0.00 in0.0 mm 0.04 in1.0 mm
12:16 PM 56.8°F13.8°C 55.9°F13.3°C 97% 4.7 mph E7.6 kmh E 11.6 mph18.7 kmh 30.15 in1021.0 mb 0.02 in0.5 mm 0.00 in0.0 mm 0.04 in1.0 mm
12:11 PM 56.8°F13.8°C 55.9°F13.3°C 97% 4.5 mph SE7.2 kmh SE 8.5 mph13.7 kmh 30.16 in1021.3 mb 0.02 in0.5 mm 0.00 in0.0 mm 0.04 in1.0 mm
12:06 PM 57.0°F13.9°C 56.1°F13.4°C 97% 3.1 mph ESE5.0 kmh ESE 8.5 mph13.7 kmh 30.16 in1021.3 mb 0.02 in0.5 mm 0.00 in0.0 mm 0.04 in1.0 mm
12:01 PM 56.8°F13.8°C 55.9°F13.3°C 97% 3.4 mph ESE5.5 kmh ESE 7.4 mph11.9 kmh 30.16 in1021.3 mb 0.02 in0.5 mm 0.01 in0.3 mm 0.04 in1.0 mm
11:56 AM 56.8°F13.8°C 55.9°F13.3°C 97% 4.9 mph ESE7.9 kmh ESE 9.6 mph15.4 kmh 30.16 in1021.3 mb 0.01 in0.3 mm 0.00 in0.0 mm 0.03 in0.8 mm
11:51 AM 56.8°F13.8°C 55.9°F13.3°C 97% 4.3 mph E6.9 kmh E 9.6 mph15.4 kmh 30.16 in1021.3 mb 0.01 in0.3 mm 0.00 in0.0 mm 0.03 in0.8 mm
11:46 AM 56.8°F13.8°C 55.9°F13.3°C 97% 4.5 mph E7.2 kmh E 9.6 mph15.4 kmh 30.16 in1021.3 mb 0.01 in0.3 mm 0.00 in0.0 mm 0.03 in0.8 mm
11:40 AM 57.0°F13.9°C 56.1°F13.4°C 97% 5.1 mph ESE8.2 kmh ESE 9.6 mph15.4 kmh 30.16 in1021.3 mb 0.01 in0.3 mm 0.00 in0.0 mm 0.03 in0.8 mm
11:35 AM 57.0°F13.9°C 55.9°F13.3°C 96% 4.0 mph E6.4 kmh E 8.5 mph13.7 kmh 30.16 in1021.3 mb 0.01 in0.3 mm 0.00 in0.0 mm 0.03 in0.8 mm
11:30 AM 57.0°F13.9°C 55.9°F13.3°C 96% 5.8 mph E9.3 kmh E 9.6 mph15.4 kmh 30.16 in1021.3 mb 0.01 in0.3 mm 0.00 in0.0 mm 0.03 in0.8 mm
11:25 AM 57.0°F13.9°C 55.9°F13.3°C 96% 4.3 mph E6.9 kmh E 9.6 mph15.4 kmh 30.16 in1021.3 mb 0.01 in0.3 mm 0.12 in3.0 mm 0.03 in0.8 mm
11:20 AM 57.0°F13.9°C 55.6°F13.1°C 95% 3.8 mph SE6.1 kmh SE 8.5 mph13.7 kmh 30.16 in1021.3 mb 0.00 in0.0 mm 0.00 in0.0 mm 0.02 in0.5 mm
11:15 AM 57.2°F14.0°C 55.8°F13.2°C 95% 3.8 mph NE6.1 kmh NE 9.6 mph15.4 kmh 30.16 in1021.3 mb 0.00 in0.0 mm 0.00 in0.0 mm 0.02 in0.5 mm
11:10 AM 57.4°F14.1°C 55.9°F13.3°C 95% 4.5 mph ENE7.2 kmh ENE 6.3 mph10.1 kmh 30.16 in1021.3 mb 0.00 in0.0 mm 0.00 in0.0 mm 0.02 in0.5 mm
11:05 AM 57.6°F14.2°C 55.8°F13.2°C 94% 3.4 mph ESE5.5 kmh ESE 8.5 mph13.7 kmh 30.16 in1021.3 mb 0.00 in0.0 mm 0.00 in0.0 mm 0.02 in0.5 mm
11:00 AM 57.6°F14.2°C 55.8°F13.2°C 94% 6.5 mph E10.5 kmh E 10.5 mph16.9 kmh 30.17 in1021.7 mb 0.00 in0.0 mm 0.00 in0.0 mm 0.02 in0.5 mm
10:55 AM 57.7°F14.3°C 55.8°F13.2°C 93% 4.9 mph E7.9 kmh E 9.6 mph15.4 kmh 30.16 in1021.3 mb 0.00 in0.0 mm 0.00 in0.0 mm 0.02 in0.5 mm
10:50 AM 57.6°F14.2°C 55.6°F13.1°C 93% 5.1 mph E8.2 kmh E 10.5 mph16.9 kmh 30.17 in1021.7 mb 0.00 in0.0 mm 0.00 in0.0 mm 0.02 in0.5 mm
10:45 AM 57.7°F14.3°C 55.9°F13.3°C 94% 3.4 mph ESE5.5 kmh ESE 7.4 mph11.9 kmh 30.16 in1021.3 mb 0.00 in0.0 mm 0.00 in0.0 mm 0.02 in0.5 mm
10:40 AM 57.7°F14.3°C 55.9°F13.3°C 94% 2.2 mph SSE3.5 kmh SSE 5.4 mph8.7 kmh 30.16 in1021.3 mb 0.00 in0.0 mm 0.00 in0.0 mm 0.02 in0.5 mm
10:35 AM 57.7°F14.3°C 56.3°F13.5°C 95% 4.3 mph ESE6.9 kmh ESE 5.4 mph8.7 kmh 30.16 in1021.3 mb 0.00 in0.0 mm 0.00 in0.0 mm 0.02 in0.5 mm
10:30 AM 57.7°F14.3°C 56.3°F13.5°C 95% 3.6 mph ESE5.8 kmh ESE 9.6 mph15.4 kmh 30.16 in1021.3 mb 0.00 in0.0 mm 0.00 in0.0 mm 0.02 in0.5 mm
10:25 AM 57.6°F14.2°C 56.1°F13.4°C 95% 4.5 mph E7.2 kmh E 8.5 mph13.7 kmh 30.16 in1021.3 mb 0.00 in0.0 mm 0.00 in0.0 mm 0.02 in0.5 mm
10:20 AM 57.6°F14.2°C 56.1°F13.4°C 95% 4.3 mph SE6.9 kmh SE 10.5 mph16.9 kmh 30.16 in1021.3 mb 0.00 in0.0 mm 0.00 in0.0 mm 0.02 in0.5 mm
10:15 AM 57.6°F14.2°C 56.1°F13.4°C 95% 3.8 mph E6.1 kmh E 9.6 mph15.4 kmh 30.16 in1021.3 mb 0.00 in0.0 mm 0.00 in0.0 mm 0.02 in0.5 mm
10:10 AM 57.4°F14.1°C 55.9°F13.3°C 95% 4.3 mph E6.9 kmh E 8.5 mph13.7 kmh 30.16 in1021.3 mb 0.00 in0.0 mm 0.00 in0.0 mm 0.02 in0.5 mm
10:05 AM 57.2°F14.0°C 55.8°F13.2°C 95% 3.4 mph E5.5 kmh E 6.3 mph10.1 kmh 30.16 in1021.3 mb 0.00 in0.0 mm 0.00 in0.0 mm 0.02 in0.5 mm
10:00 AM 57.0°F13.9°C 55.6°F13.1°C 95% 2.0 mph ENE3.2 kmh ENE 7.4 mph11.9 kmh 30.16 in1021.3 mb 0.01 in0.3 mm 0.00 in0.0 mm 0.02 in0.5 mm
09:55 AM 56.8°F13.8°C 55.4°F13.0°C 95% 3.6 mph SE5.8 kmh SE 6.3 mph10.1 kmh 30.16 in1021.3 mb 0.02 in0.5 mm 0.00 in0.0 mm 0.02 in0.5 mm
09:50 AM 56.8°F13.8°C 55.8°F13.2°C 96% 3.8 mph E6.1 kmh E 7.4 mph11.9 kmh 30.17 in1021.7 mb 0.02 in0.5 mm 0.00 in0.0 mm 0.02 in0.5 mm
09:45 AM 56.7°F13.7°C 55.6°F13.1°C 96% 4.7 mph SE7.6 kmh SE 11.6 mph18.7 kmh 30.16 in1021.3 mb 0.02 in0.5 mm 0.00 in0.0 mm 0.02 in0.5 mm
09:40 AM 56.5°F13.6°C 55.4°F13.0°C 96% 3.4 mph ESE5.5 kmh ESE 6.3 mph10.1 kmh 30.17 in1021.7 mb 0.02 in0.5 mm 0.00 in0.0 mm 0.02 in0.5 mm
09:35 AM 56.7°F13.7°C 55.6°F13.1°C 96% 4.0 mph E6.4 kmh E 6.3 mph10.1 kmh 30.17 in1021.7 mb 0.02 in0.5 mm 0.00 in0.0 mm 0.02 in0.5 mm
09:30 AM 56.8°F13.8°C 55.8°F13.2°C 96% 3.1 mph ENE5.0 kmh ENE 5.4 mph8.7 kmh 30.17 in1021.7 mb 0.02 in0.5 mm 0.00 in0.0 mm 0.02 in0.5 mm
09:25 AM 56.8°F13.8°C 55.9°F13.3°C 97% 3.6 mph E5.8 kmh E 9.6 mph15.4 kmh 30.17 in1021.7 mb 0.02 in0.5 mm 0.00 in0.0 mm 0.02 in0.5 mm
09:20 AM 56.8°F13.8°C 55.9°F13.3°C 97% 3.8 mph SE6.1 kmh SE 7.4 mph11.9 kmh 30.17 in1021.7 mb 0.02 in0.5 mm 0.00 in0.0 mm 0.02 in0.5 mm
09:15 AM 56.8°F13.8°C 55.9°F13.3°C 97% 4.3 mph ESE6.9 kmh ESE 7.4 mph11.9 kmh 30.17 in1021.7 mb 0.02 in0.5 mm 0.00 in0.0 mm 0.02 in0.5 mm
09:10 AM 56.7°F13.7°C 55.8°F13.2°C 97% 3.8 mph SE6.1 kmh SE 7.4 mph11.9 kmh 30.17 in1021.7 mb 0.02 in0.5 mm 0.00 in0.0 mm 0.02 in0.5 mm
09:05 AM 56.1°F13.4°C 55.2°F12.9°C 97% 2.9 mph E4.7 kmh E 8.5 mph13.7 kmh 30.17 in1021.7 mb 0.02 in0.5 mm 0.12 in3.0 mm 0.02 in0.5 mm
09:00 AM 56.1°F13.4°C 55.0°F12.8°C 96% 4.9 mph E7.9 kmh E 9.6 mph15.4 kmh 30.17 in1021.7 mb 0.01 in0.3 mm 0.01 in0.3 mm 0.01 in0.3 mm
08:55 AM 56.1°F13.4°C 55.2°F12.9°C 97% 3.6 mph E5.8 kmh E 8.5 mph13.7 kmh 30.17 in1021.7 mb 0.00 in0.0 mm 0.00 in0.0 mm 0.00 in0.0 mm
08:50 AM 56.1°F13.4°C 55.2°F12.9°C 97% 2.7 mph ENE4.3 kmh ENE 7.4 mph11.9 kmh 30.17 in1021.7 mb 0.00 in0.0 mm 0.00 in0.0 mm 0.00 in0.0 mm
08:45 AM 55.9°F13.3°C 54.9°F12.7°C 96% 2.0 mph ESE3.2 kmh ESE 4.3 mph6.9 kmh 30.17 in1021.7 mb 0.00 in0.0 mm 0.00 in0.0 mm 0.00 in0.0 mm
08:40 AM 55.9°F13.3°C 54.9°F12.7°C 96% 3.4 mph SE5.5 kmh SE 5.4 mph8.7 kmh 30.17 in1021.7 mb 0.00 in0.0 mm 0.00 in0.0 mm 0.00 in0.0 mm
08:35 AM 55.9°F13.3°C 54.9°F12.7°C 96% 4.0 mph E6.4 kmh E 6.3 mph10.1 kmh 30.16 in1021.3 mb 0.00 in0.0 mm 0.00 in0.0 mm 0.00 in0.0 mm
08:30 AM 56.1°F13.4°C 55.0°F12.8°C 96% 1.8 mph ESE2.9 kmh ESE 5.4 mph8.7 kmh 30.16 in1021.3 mb 0.00 in0.0 mm 0.00 in0.0 mm 0.00 in0.0 mm
08:25 AM 56.1°F13.4°C 55.0°F12.8°C 96% 3.8 mph ENE6.1 kmh ENE 5.4 mph8.7 kmh 30.16 in1021.3 mb 0.00 in0.0 mm 0.00 in0.0 mm 0.00 in0.0 mm
08:20 AM 56.3°F13.5°C 55.2°F12.9°C 96% 5.1 mph E8.2 kmh E 9.6 mph15.4 kmh 30.17 in1021.7 mb 0.00 in0.0 mm 0.00 in0.0 mm 0.00 in0.0 mm
08:15 AM 56.5°F13.6°C 55.4°F13.0°C 96% 4.3 mph ESE6.9 kmh ESE 13.9 mph22.4 kmh 30.17 in1021.7 mb 0.00 in0.0 mm 0.00 in0.0 mm 0.00 in0.0 mm
08:10 AM 56.5°F13.6°C 55.4°F13.0°C 96% 5.4 mph ENE8.7 kmh ENE 9.6 mph15.4 kmh 30.18 in1022.0 mb 0.00 in0.0 mm 0.00 in0.0 mm 0.00 in0.0 mm
08:05 AM 56.5°F13.6°C 55.4°F13.0°C 96% 4.3 mph E6.9 kmh E 10.5 mph16.9 kmh 30.18 in1022.0 mb 0.00 in0.0 mm 0.00 in0.0 mm 0.00 in0.0 mm
08:00 AM 56.5°F13.6°C 55.0°F12.8°C 95% 4.7 mph ESE7.6 kmh ESE 13.9 mph22.4 kmh 30.19 in1022.4 mb 0.00 in0.0 mm 0.00 in0.0 mm 0.00 in0.0 mm
07:55 AM 56.7°F13.7°C 55.2°F12.9°C 95% 6.9 mph ESE11.1 kmh ESE 10.5 mph16.9 kmh 30.19 in1022.4 mb 0.00 in0.0 mm 0.00 in0.0 mm 0.00 in0.0 mm
07:50 AM 56.8°F13.8°C 55.2°F12.9°C 94% 4.9 mph SE7.9 kmh SE 9.6 mph15.4 kmh 30.19 in1022.4 mb 0.00 in0.0 mm 0.00 in0.0 mm 0.00 in0.0 mm
07:45 AM 57.0°F13.9°C 55.0°F12.8°C 93% 8.1 mph E13.0 kmh E 18.1 mph29.1 kmh 30.19 in1022.4 mb 0.00 in0.0 mm 0.00 in0.0 mm 0.00 in0.0 mm
07:40 AM 57.4°F14.1°C 55.0°F12.8°C 92% 3.1 mph S5.0 kmh S 18.1 mph29.1 kmh 30.19 in1022.4 mb 0.00 in0.0 mm 0.00 in0.0 mm 0.00 in0.0 mm
07:35 AM 57.7°F14.3°C 55.2°F12.9°C 91% 8.3 mph ESE13.4 kmh ESE 18.1 mph29.1 kmh 30.19 in1022.4 mb 0.00 in0.0 mm 0.00 in0.0 mm 0.00 in0.0 mm
07:30 AM 57.7°F14.3°C 55.2°F12.9°C 91% 4.5 mph E7.2 kmh E 9.6 mph15.4 kmh 30.18 in1022.0 mb 0.00 in0.0 mm 0.00 in0.0 mm 0.00 in0.0 mm
07:25 AM 57.7°F14.3°C 55.2°F12.9°C 91% 5.6 mph ESE9.0 kmh ESE 9.6 mph15.4 kmh 30.18 in1022.0 mb 0.00 in0.0 mm 0.00 in0.0 mm 0.00 in0.0 mm
07:20 AM 57.6°F14.2°C 54.7°F12.6°C 90% 3.8 mph ENE6.1 kmh ENE 7.4 mph11.9 kmh 30.18 in1022.0 mb 0.00 in0.0 mm 0.00 in0.0 mm 0.00 in0.0 mm
07:15 AM 57.6°F14.2°C 55.0°F12.8°C 91% 3.1 mph E5.0 kmh E 7.4 mph11.9 kmh 30.18 in1022.0 mb 0.00 in0.0 mm 0.00 in0.0 mm 0.00 in0.0 mm
07:10 AM 57.4°F14.1°C 54.9°F12.7°C 91% 4.7 mph E7.6 kmh E 7.4 mph11.9 kmh 30.18 in1022.0 mb 0.00 in0.0 mm 0.00 in0.0 mm 0.00 in0.0 mm
07:05 AM 57.4°F14.1°C 54.9°F12.7°C 91% 5.1 mph ESE8.2 kmh ESE 8.5 mph13.7 kmh 30.18 in1022.0 mb 0.00 in0.0 mm 0.00 in0.0 mm 0.00 in0.0 mm
07:00 AM 57.4°F14.1°C 54.9°F12.7°C 91% 4.9 mph E7.9 kmh E 10.5 mph16.9 kmh 30.17 in1021.7 mb 0.00 in0.0 mm 0.00 in0.0 mm 0.00 in0.0 mm
06:55 AM 57.4°F14.1°C 54.9°F12.7°C 91% 4.0 mph E6.4 kmh E 8.5 mph13.7 kmh 30.17 in1021.7 mb 0.00 in0.0 mm 0.00 in0.0 mm 0.00 in0.0 mm
06:50 AM 57.4°F14.1°C 54.9°F12.7°C 91% 3.4 mph ENE5.5 kmh ENE 6.3 mph10.1 kmh 30.17 in1021.7 mb 0.00 in0.0 mm 0.00 in0.0 mm 0.00 in0.0 mm
06:45 AM 57.4°F14.1°C 54.5°F12.5°C 90% 3.4 mph E5.5 kmh E 5.4 mph8.7 kmh 30.17 in1021.7 mb 0.00 in0.0 mm 0.00 in0.0 mm 0.00 in0.0 mm
06:40 AM 57.4°F14.1°C 54.5°F12.5°C 90% 3.4 mph E5.5 kmh E 7.4 mph11.9 kmh 30.17 in1021.7 mb 0.00 in0.0 mm 0.00 in0.0 mm 0.00 in0.0 mm
06:35 AM 57.4°F14.1°C 54.5°F12.5°C 90% 2.5 mph E4.0 kmh E 6.3 mph10.1 kmh 30.18 in1022.0 mb 0.00 in0.0 mm 0.00 in0.0 mm 0.00 in0.0 mm
06:30 AM 57.4°F14.1°C 54.5°F12.5°C 90% 2.7 mph NE4.3 kmh NE 5.4 mph8.7 kmh 30.17 in1021.7 mb 0.00 in0.0 mm 0.00 in0.0 mm 0.00 in0.0 mm
06:25 AM 57.4°F14.1°C 54.5°F12.5°C 90% 2.7 mph E4.3 kmh E 5.4 mph8.7 kmh 30.17 in1021.7 mb 0.00 in0.0 mm 0.00 in0.0 mm 0.00 in0.0 mm
06:20 AM 57.4°F14.1°C 54.5°F12.5°C 90% 2.2 mph E3.5 kmh E 5.4 mph8.7 kmh 30.18 in1022.0 mb 0.00 in0.0 mm 0.00 in0.0 mm 0.00 in0.0 mm
06:15 AM 57.4°F14.1°C 54.5°F12.5°C 90% 3.6 mph E5.8 kmh E 5.4 mph8.7 kmh 30.18 in1022.0 mb 0.00 in0.0 mm 0.00 in0.0 mm 0.00 in0.0 mm
06:10 AM 57.4°F14.1°C 54.5°F12.5°C 90% 2.7 mph E4.3 kmh E 5.4 mph8.7 kmh 30.18 in1022.0 mb 0.00 in0.0 mm 0.00 in0.0 mm 0.00 in0.0 mm
06:05 AM 57.2°F14.0°C 54.3°F12.4°C 90% 3.4 mph E5.5 kmh E 6.3 mph10.1 kmh 30.18 in1022.0 mb 0.00 in0.0 mm 0.00 in0.0 mm 0.00 in0.0 mm
06:00 AM 57.2°F14.0°C 54.3°F12.4°C 90% 2.2 mph E3.5 kmh E 6.3 mph10.1 kmh 30.18 in1022.0 mb 0.00 in0.0 mm 0.00 in0.0 mm 0.00 in0.0 mm
05:55 AM 57.0°F13.9°C 54.1°F12.3°C 90% 4.0 mph E6.4 kmh E 7.4 mph11.9 kmh 30.18 in1022.0 mb 0.00 in0.0 mm 0.00 in0.0 mm 0.00 in0.0 mm
05:50 AM 57.0°F13.9°C 54.1°F12.3°C 90% 2.9 mph ESE4.7 kmh ESE 9.6 mph15.4 kmh 30.18 in1022.0 mb 0.00 in0.0 mm 0.00 in0.0 mm 0.00 in0.0 mm
05:45 AM 57.0°F13.9°C 54.5°F12.5°C 91% 2.7 mph E4.3 kmh E 6.3 mph10.1 kmh 30.18 in1022.0 mb 0.00 in0.0 mm 0.00 in0.0 mm 0.00 in0.0 mm
05:40 AM 57.0°F13.9°C 54.1°F12.3°C 90% 3.6 mph E5.8 kmh E 8.5 mph13.7 kmh 30.18 in1022.0 mb 0.00 in0.0 mm 0.00 in0.0 mm 0.00 in0.0 mm
05:35 AM 57.0°F13.9°C 54.1°F12.3°C 90% 2.5 mph ESE4.0 kmh ESE 5.4 mph8.7 kmh 30.18 in1022.0 mb 0.00 in0.0 mm 0.00 in0.0 mm 0.00 in0.0 mm
05:30 AM 57.0°F13.9°C 54.5°F12.5°C 91% 2.7 mph ESE4.3 kmh ESE 5.4 mph8.7 kmh 30.18 in1022.0 mb 0.00 in0.0 mm 0.00 in0.0 mm 0.00 in0.0 mm
05:25 AM 56.8°F13.8°C 54.3°F12.4°C 91% 4.0 mph SE6.4 kmh SE 7.4 mph11.9 kmh 30.18 in1022.0 mb 0.00 in0.0 mm 0.00 in0.0 mm 0.00 in0.0 mm
05:20 AM 56.8°F13.8°C 54.3°F12.4°C 91% 4.0 mph SE6.4 kmh SE 7.4 mph11.9 kmh 30.18 in1022.0 mb 0.00 in0.0 mm 0.00 in0.0 mm 0.00 in0.0 mm
05:15 AM 56.8°F13.8°C 54.5°F12.5°C 92% 3.6 mph E5.8 kmh E 7.4 mph11.9 kmh 30.18 in1022.0 mb 0.00 in0.0 mm 0.00 in0.0 mm 0.00 in0.0 mm
05:10 AM 56.7°F13.7°C 54.3°F12.4°C 92% 4.0 mph E6.4 kmh E 7.4 mph11.9 kmh 30.19 in1022.4 mb 0.00 in0.0 mm 0.00 in0.0 mm 0.00 in0.0 mm
05:05 AM 56.7°F13.7°C 54.3°F12.4°C 92% 2.9 mph ESE4.7 kmh ESE 6.3 mph10.1 kmh 30.19 in1022.4 mb 0.00 in0.0 mm 0.00 in0.0 mm 0.00 in0.0 mm
05:00 AM 56.7°F13.7°C 54.3°F12.4°C 92% 2.9 mph ESE4.7 kmh ESE 7.4 mph11.9 kmh 30.19 in1022.4 mb 0.00 in0.0 mm 0.00 in0.0 mm 0.00 in0.0 mm
04:55 AM 56.7°F13.7°C 54.1°F12.3°C 91% 2.5 mph E4.0 kmh E 5.4 mph8.7 kmh 30.19 in1022.4 mb 0.00 in0.0 mm 0.00 in0.0 mm 0.00 in0.0 mm
04:50 AM 56.8°F13.8°C 54.3°F12.4°C 91% 4.0 mph ESE6.4 kmh ESE 7.4 mph11.9 kmh 30.19 in1022.4 mb 0.00 in0.0 mm 0.00 in0.0 mm 0.00 in0.0 mm
04:45 AM 56.8°F13.8°C 54.3°F12.4°C 91% 3.4 mph E5.5 kmh E 8.5 mph13.7 kmh 30.18 in1022.0 mb 0.00 in0.0 mm 0.00 in0.0 mm 0.00 in0.0 mm
04:40 AM 56.8°F13.8°C 54.3°F12.4°C 91% 3.8 mph E6.1 kmh E 7.4 mph11.9 kmh 30.19 in1022.4 mb 0.00 in0.0 mm 0.00 in0.0 mm 0.00 in0.0 mm
04:35 AM 57.0°F13.9°C 54.5°F12.5°C 91% 2.9 mph ESE4.7 kmh ESE 5.4 mph8.7 kmh 30.19 in1022.4 mb 0.00 in0.0 mm 0.00 in0.0 mm 0.00 in0.0 mm
04:30 AM 57.0°F13.9°C 54.1°F12.3°C 90% 2.0 mph SE3.2 kmh SE 7.4 mph11.9 kmh 30.19 in1022.4 mb 0.00 in0.0 mm 0.00 in0.0 mm 0.00 in0.0 mm
04:25 AM 57.2°F14.0°C 54.7°F12.6°C 91% 3.8 mph ESE6.1 kmh ESE 8.5 mph13.7 kmh 30.18 in1022.0 mb 0.00 in0.0 mm 0.00 in0.0 mm 0.00 in0.0 mm
04:20 AM 57.2°F14.0°C 54.3°F12.4°C 90% 2.7 mph ESE4.3 kmh ESE 7.4 mph11.9 kmh 30.19 in1022.4 mb 0.00 in0.0 mm 0.00 in0.0 mm 0.00 in0.0 mm
04:15 AM 57.4°F14.1°C 54.5°F12.5°C 90% 2.7 mph SE4.3 kmh SE 4.3 mph6.9 kmh 30.19 in1022.4 mb 0.00 in0.0 mm 0.00 in0.0 mm 0.00 in0.0 mm
04:10 AM 57.7°F14.3°C 54.9°F12.7°C 90% 3.4 mph SE5.5 kmh SE 6.3 mph10.1 kmh 30.19 in1022.4 mb 0.00 in0.0 mm 0.00 in0.0 mm 0.00 in0.0 mm
04:05 AM 57.7°F14.3°C 54.9°F12.7°C 90% 2.9 mph E4.7 kmh E 6.3 mph10.1 kmh 30.19 in1022.4 mb 0.00 in0.0 mm 0.00 in0.0 mm 0.00 in0.0 mm
04:00 AM 57.9°F14.4°C 55.0°F12.8°C 90% 3.4 mph E5.5 kmh E 10.5 mph16.9 kmh 30.19 in1022.4 mb 0.00 in0.0 mm 0.00 in0.0 mm 0.00 in0.0 mm
03:55 AM 57.9°F14.4°C 55.0°F12.8°C 90% 4.0 mph SE6.4 kmh SE 7.4 mph11.9 kmh 30.19 in1022.4 mb 0.00 in0.0 mm 0.00 in0.0 mm 0.00 in0.0 mm
03:50 AM 57.9°F14.4°C 55.0°F12.8°C 90% 4.3 mph SE6.9 kmh SE 12.8 mph20.6 kmh 30.19 in1022.4 mb 0.00 in0.0 mm 0.00 in0.0 mm 0.00 in0.0 mm
03:45 AM 58.1°F14.5°C 55.2°F12.9°C 90% 5.1 mph E8.2 kmh E 8.5 mph13.7 kmh 30.19 in1022.4 mb 0.00 in0.0 mm 0.00 in0.0 mm 0.00 in0.0 mm
03:40 AM 58.1°F14.5°C 55.2°F12.9°C 90% 5.6 mph SE9.0 kmh SE 12.8 mph20.6 kmh 30.19 in1022.4 mb 0.00 in0.0 mm 0.00 in0.0 mm 0.00 in0.0 mm
03:35 AM 58.3°F14.6°C 55.4°F13.0°C 90% 3.8 mph ESE6.1 kmh ESE 7.4 mph11.9 kmh 30.19 in1022.4 mb 0.00 in0.0 mm 0.00 in0.0 mm 0.00 in0.0 mm
03:30 AM 58.3°F14.6°C 55.4°F13.0°C 90% 3.4 mph E5.5 kmh E 9.6 mph15.4 kmh 30.20 in1022.7 mb 0.00 in0.0 mm 0.00 in0.0 mm 0.00 in0.0 mm
03:25 AM 58.5°F14.7°C 55.6°F13.1°C 90% 3.8 mph E6.1 kmh E 6.3 mph10.1 kmh 30.20 in1022.7 mb 0.00 in0.0 mm 0.00 in0.0 mm 0.00 in0.0 mm
03:20 AM 58.6°F14.8°C 55.4°F13.0°C 89% 3.4 mph SE5.5 kmh SE 6.3 mph10.1 kmh 30.20 in1022.7 mb 0.00 in0.0 mm 0.00 in0.0 mm 0.00 in0.0 mm
03:15 AM 58.6°F14.8°C 55.4°F13.0°C 89% 3.6 mph E5.8 kmh E 6.3 mph10.1 kmh 30.20 in1022.7 mb 0.00 in0.0 mm 0.00 in0.0 mm 0.00 in0.0 mm
03:10 AM 58.8°F14.9°C 55.6°F13.1°C 89% 2.5 mph SE4.0 kmh SE 8.5 mph13.7 kmh 30.20 in1022.7 mb 0.00 in0.0 mm 0.00 in0.0 mm 0.00 in0.0 mm
03:05 AM 59.2°F15.1°C 55.6°F13.1°C 88% 4.3 mph E6.9 kmh E 9.6 mph15.4 kmh 30.21 in1023.0 mb 0.00 in0.0 mm 0.00 in0.0 mm 0.00 in0.0 mm
03:00 AM 59.2°F15.1°C 55.6°F13.1°C 88% 4.5 mph SE7.2 kmh SE 7.4 mph11.9 kmh 30.20 in1022.7 mb 0.00 in0.0 mm 0.00 in0.0 mm 0.00 in0.0 mm
02:55 AM 59.4°F15.2°C 55.8°F13.2°C 88% 3.6 mph E5.8 kmh E 8.5 mph13.7 kmh 30.21 in1023.0 mb 0.00 in0.0 mm 0.00 in0.0 mm 0.00 in0.0 mm
02:50 AM 59.4°F15.2°C 55.8°F13.2°C 88% 5.4 mph SE8.7 kmh SE 8.5 mph13.7 kmh 30.21 in1023.0 mb 0.00 in0.0 mm 0.00 in0.0 mm 0.00 in0.0 mm
02:45 AM 59.4°F15.2°C 55.8°F13.2°C 88% 4.0 mph SE6.4 kmh SE 11.6 mph18.7 kmh 30.21 in1023.0 mb 0.00 in0.0 mm 0.00 in0.0 mm 0.00 in0.0 mm
02:40 AM 59.4°F15.2°C 55.8°F13.2°C 88% 5.8 mph ESE9.3 kmh ESE 10.5 mph16.9 kmh 30.21 in1023.0 mb 0.00 in0.0 mm 0.00 in0.0 mm 0.00 in0.0 mm
02:35 AM 59.4°F15.2°C 55.8°F13.2°C 88% 5.4 mph E8.7 kmh E 8.5 mph13.7 kmh 30.22 in1023.4 mb 0.00 in0.0 mm 0.00 in0.0 mm 0.00 in0.0 mm
02:30 AM 59.4°F15.2°C 56.1°F13.4°C 89% 5.4 mph ESE8.7 kmh ESE 11.6 mph18.7 kmh 30.22 in1023.4 mb 0.00 in0.0 mm 0.00 in0.0 mm 0.00 in0.0 mm
02:25 AM 59.2°F15.1°C 56.3°F13.5°C 90% 4.9 mph SE7.9 kmh SE 7.4 mph11.9 kmh 30.22 in1023.4 mb 0.00 in0.0 mm 0.00 in0.0 mm 0.00 in0.0 mm
02:20 AM 59.0°F15.0°C 56.1°F13.4°C 90% 5.4 mph E8.7 kmh E 10.5 mph16.9 kmh 30.22 in1023.4 mb 0.00 in0.0 mm 0.00 in0.0 mm 0.00 in0.0 mm
02:15 AM 58.8°F14.9°C 55.9°F13.3°C 90% 4.0 mph E6.4 kmh E 10.5 mph16.9 kmh 30.22 in1023.4 mb 0.00 in0.0 mm 0.00 in0.0 mm 0.00 in0.0 mm
02:10 AM 58.8°F14.9°C 56.1°F13.4°C 91% 6.3 mph E10.1 kmh E 13.9 mph22.4 kmh 30.22 in1023.4 mb 0.00 in0.0 mm 0.00 in0.0 mm 0.00 in0.0 mm
02:05 AM 58.6°F14.8°C 56.3°F13.5°C 92% 4.3 mph E6.9 kmh E 10.5 mph16.9 kmh 30.22 in1023.4 mb 0.00 in0.0 mm 0.00 in0.0 mm 0.00 in0.0 mm
02:00 AM 58.5°F14.7°C 56.1°F13.4°C 92% 5.4 mph ESE8.7 kmh ESE 9.6 mph15.4 kmh 30.22 in1023.4 mb 0.00 in0.0 mm 0.00 in0.0 mm 0.00 in0.0 mm
01:55 AM 58.5°F14.7°C 55.8°F13.2°C 91% 3.8 mph ENE6.1 kmh ENE 9.6 mph15.4 kmh 30.22 in1023.4 mb 0.00 in0.0 mm 0.00 in0.0 mm 0.00 in0.0 mm
01:50 AM 58.6°F14.8°C 55.9°F13.3°C 91% 5.1 mph ENE8.2 kmh ENE 10.5 mph16.9 kmh 30.22 in1023.4 mb 0.00 in0.0 mm 0.00 in0.0 mm 0.00 in0.0 mm
01:45 AM 58.8°F14.9°C 56.1°F13.4°C 91% 4.7 mph ENE7.6 kmh ENE 9.6 mph15.4 kmh 30.22 in1023.4 mb 0.00 in0.0 mm 0.00 in0.0 mm 0.00 in0.0 mm
01:40 AM 58.8°F14.9°C 55.9°F13.3°C 90% 5.4 mph ESE8.7 kmh ESE 8.5 mph13.7 kmh 30.22 in1023.4 mb 0.00 in0.0 mm 0.00 in0.0 mm 0.00 in0.0 mm
01:35 AM 59.0°F15.0°C 56.1°F13.4°C 90% 5.4 mph E8.7 kmh E 11.6 mph18.7 kmh 30.22 in1023.4 mb 0.00 in0.0 mm 0.00 in0.0 mm 0.00 in0.0 mm
01:30 AM 59.2°F15.1°C 56.3°F13.5°C 90% 5.6 mph ESE9.0 kmh ESE 9.6 mph15.4 kmh 30.22 in1023.4 mb 0.00 in0.0 mm 0.00 in0.0 mm 0.00 in0.0 mm
01:25 AM 59.0°F15.0°C 56.3°F13.5°C 91% 5.4 mph ESE8.7 kmh ESE 10.5 mph16.9 kmh 30.22 in1023.4 mb 0.00 in0.0 mm 0.00 in0.0 mm 0.00 in0.0 mm
01:20 AM 58.8°F14.9°C 56.1°F13.4°C 91% 5.8 mph E9.3 kmh E 10.5 mph16.9 kmh 30.22 in1023.4 mb 0.00 in0.0 mm 0.00 in0.0 mm 0.00 in0.0 mm
01:15 AM 58.6°F14.8°C 55.9°F13.3°C 91% 5.6 mph ESE9.0 kmh ESE 10.5 mph16.9 kmh 30.22 in1023.4 mb 0.00 in0.0 mm 0.00 in0.0 mm 0.00 in0.0 mm
01:10 AM 58.5°F14.7°C 56.1°F13.4°C 92% 5.1 mph E8.2 kmh E 9.6 mph15.4 kmh 30.23 in1023.7 mb 0.00 in0.0 mm 0.00 in0.0 mm 0.00 in0.0 mm
01:05 AM 58.3°F14.6°C 55.9°F13.3°C 92% 3.6 mph E5.8 kmh E 8.5 mph13.7 kmh 30.23 in1023.7 mb 0.00 in0.0 mm 0.00 in0.0 mm 0.00 in0.0 mm
01:00 AM 58.3°F14.6°C 55.9°F13.3°C 92% 4.7 mph E7.6 kmh E 9.6 mph15.4 kmh 30.23 in1023.7 mb 0.00 in0.0 mm 0.00 in0.0 mm 0.00 in0.0 mm
12:55 AM 58.3°F14.6°C 55.6°F13.1°C 91% 5.8 mph ENE9.3 kmh ENE 8.5 mph13.7 kmh 30.23 in1023.7 mb 0.00 in0.0 mm 0.00 in0.0 mm 0.00 in0.0 mm
12:50 AM 58.5°F14.7°C 55.8°F13.2°C 91% 5.8 mph E9.3 kmh E 9.6 mph15.4 kmh 30.23 in1023.7 mb 0.00 in0.0 mm 0.00 in0.0 mm 0.00 in0.0 mm
12:45 AM 58.5°F14.7°C 55.6°F13.1°C 90% 4.3 mph ESE6.9 kmh ESE 9.6 mph15.4 kmh 30.23 in1023.7 mb 0.00 in0.0 mm 0.00 in0.0 mm 0.00 in0.0 mm
12:40 AM 58.6°F14.8°C 55.8°F13.2°C 90% 5.1 mph E8.2 kmh E 9.6 mph15.4 kmh 30.23 in1023.7 mb 0.00 in0.0 mm 0.00 in0.0 mm 0.00 in0.0 mm
12:35 AM 58.6°F14.8°C 55.8°F13.2°C 90% 6.7 mph ESE10.8 kmh ESE 13.9 mph22.4 kmh 30.23 in1023.7 mb 0.00 in0.0 mm 0.00 in0.0 mm 0.00 in0.0 mm
12:30 AM 58.8°F14.9°C 55.9°F13.3°C 90% 5.6 mph E9.0 kmh E 10.5 mph16.9 kmh 30.23 in1023.7 mb 0.00 in0.0 mm 0.00 in0.0 mm 0.00 in0.0 mm
12:25 AM 58.8°F14.9°C 55.9°F13.3°C 90% 6.7 mph ESE10.8 kmh ESE 10.5 mph16.9 kmh 30.23 in1023.7 mb 0.00 in0.0 mm 0.00 in0.0 mm 0.00 in0.0 mm
12:20 AM 58.8°F14.9°C 55.9°F13.3°C 90% 4.5 mph SE7.2 kmh SE 8.5 mph13.7 kmh 30.23 in1023.7 mb 0.00 in0.0 mm 0.00 in0.0 mm 0.00 in0.0 mm
12:15 AM 58.8°F14.9°C 55.9°F13.3°C 90% 4.5 mph SE7.2 kmh SE 7.4 mph11.9 kmh 30.23 in1023.7 mb 0.00 in0.0 mm 0.00 in0.0 mm 0.00 in0.0 mm
12:10 AM 58.8°F14.9°C 55.6°F13.1°C 89% 5.1 mph ESE8.2 kmh ESE 8.5 mph13.7 kmh 30.23 in1023.7 mb 0.00 in0.0 mm 0.00 in0.0 mm 0.00 in0.0 mm
12:05 AM 58.8°F14.9°C 55.6°F13.1°C 89% 5.1 mph E8.2 kmh E 9.6 mph15.4 kmh 30.23 in1023.7 mb 0.00 in0.0 mm 0.00 in0.0 mm 0.00 in0.0 mm
12:00 AM -5537.2°C -5537.2°C - - N16091.8 kmh N -- -338605.1 mb 0.00 in0.0 mm 0.00 in0.0 mm 0.00 in0.0 mm